Lotsee, Oklahoma
Current Conditions -  °F | °C
As of 10:15 AM on Saturday 25 Oct 2014 (Local Time) from KOWP Reporting Station
Clear Clear  
Wind Chill: 72°   Ceiling: Unl
Heat Index: 72°   Visibility: 10mi
Dew Point: 62°   Wind: 6mph
Humidity: 72%   Direction: 210°SSW
Pressure: 30.1"   Gusts: NA
Location:  36.1933°N, 96.1589°W
Report Text: KOWP 251515Z AUTO 21005KT 10SM CLR 22/17 A3010 RMK AO2 T02210169
Loading
Personal Weather Stations






























Interactive Weather Map
Tropical Storm Tracking
New forecast layout! Learn more

10-Day Weather Forecast

Advertisements
Track Severe Weather on mobile